sensor_id;sensor_type;location;lat;lon;timestamp;P1;durP1;ratioP1;P2;durP2;ratioP2
66979;SDS011;54048;51.468;-2.572;2022-07-21T00:02:24;2.30;;;0.90;;
66979;SDS011;54048;51.468;-2.572;2022-07-21T00:04:50;5.43;;;1.00;;
66979;SDS011;54048;51.468;-2.572;2022-07-21T00:07:15;4.32;;;0.95;;
66979;SDS011;54048;51.468;-2.572;2022-07-21T00:09:40;2.53;;;1.25;;
66979;SDS011;54048;51.468;-2.572;2022-07-21T00:12:06;4.28;;;1.00;;
66979;SDS011;54048;51.468;-2.572;2022-07-21T00:14:32;1.77;;;0.88;;
66979;SDS011;54048;51.468;-2.572;2022-07-21T00:16:57;3.85;;;0.80;;
66979;SDS011;54048;51.468;-2.572;2022-07-21T00:19:23;2.08;;;0.90;;
66979;SDS011;54048;51.468;-2.572;2022-07-21T00:21:48;5.07;;;0.90;;
66979;SDS011;54048;51.468;-2.572;2022-07-21T00:24:14;2.05;;;0.80;;
66979;SDS011;54048;51.468;-2.572;2022-07-21T00:26:39;1.00;;;0.90;;
66979;SDS011;54048;51.468;-2.572;2022-07-21T00:29:05;2.45;;;0.90;;
66979;SDS011;54048;51.468;-2.572;2022-07-21T00:31:30;1.42;;;1.00;;
66979;SDS011;54048;51.468;-2.572;2022-07-21T00:33:56;2.22;;;0.80;;
66979;SDS011;54048;51.468;-2.572;2022-07-21T00:36:21;2.92;;;1.00;;
66979;SDS011;54048;51.468;-2.572;2022-07-21T00:38:47;1.90;;;1.00;;
66979;SDS011;54048;51.468;-2.572;2022-07-21T00:41:13;3.47;;;1.10;;
66979;SDS011;54048;51.468;-2.572;2022-07-21T00:43:39;3.65;;;1.10;;
66979;SDS011;54048;51.468;-2.572;2022-07-21T00:46:04;1.75;;;0.90;;
66979;SDS011;54048;51.468;-2.572;2022-07-21T00:48:30;1.45;;;0.90;;
66979;SDS011;54048;51.468;-2.572;2022-07-21T00:50:55;3.40;;;0.88;;
66979;SDS011;54048;51.468;-2.572;2022-07-21T00:53:20;4.70;;;0.95;;
66979;SDS011;54048;51.468;-2.572;2022-07-21T00:55:46;1.60;;;0.90;;
66979;SDS011;54048;51.468;-2.572;2022-07-21T00:58:11;1.38;;;0.80;;
66979;SDS011;54048;51.468;-2.572;2022-07-21T01:00:37;2.00;;;1.00;;
66979;SDS011;54048;51.468;-2.572;2022-07-21T01:03:03;2.72;;;0.98;;
66979;SDS011;54048;51.468;-2.572;2022-07-21T01:05:29;1.33;;;1.00;;
66979;SDS011;54048;51.468;-2.572;2022-07-21T01:07:54;1.10;;;0.93;;
66979;SDS011;54048;51.468;-2.572;2022-07-21T01:10:22;1.58;;;0.88;;
66979;SDS011;54048;51.468;-2.572;2022-07-21T01:12:48;2.00;;;0.82;;
66979;SDS011;54048;51.468;-2.572;2022-07-21T01:15:14;0.73;;;0.73;;
66979;SDS011;54048;51.468;-2.572;2022-07-21T01:17:41;4.25;;;0.95;;
66979;SDS011;54048;51.468;-2.572;2022-07-21T01:20:08;1.27;;;0.77;;
66979;SDS011;54048;51.468;-2.572;2022-07-21T01:22:37;2.15;;;0.65;;
66979;SDS011;54048;51.468;-2.572;2022-07-21T01:25:04;2.47;;;0.75;;
66979;SDS011;54048;51.468;-2.572;2022-07-21T01:27:30;0.90;;;0.80;;
66979;SDS011;54048;51.468;-2.572;2022-07-21T01:29:56;1.13;;;0.70;;
66979;SDS011;54048;51.468;-2.572;2022-07-21T01:32:22;1.65;;;0.90;;
66979;SDS011;54048;51.468;-2.572;2022-07-21T01:34:48;3.22;;;1.90;;
66979;SDS011;54048;51.468;-2.572;2022-07-21T01:37:13;3.83;;;1.98;;
66979;SDS011;54048;51.468;-2.572;2022-07-21T01:39:39;4.13;;;1.40;;
66979;SDS011;54048;51.468;-2.572;2022-07-21T01:42:23;3.25;;;1.25;;
66979;SDS011;54048;51.468;-2.572;2022-07-21T01:44:49;1.92;;;0.90;;
66979;SDS011;54048;51.468;-2.572;2022-07-21T01:47:14;1.65;;;0.80;;
66979;SDS011;54048;51.468;-2.572;2022-07-21T01:49:42;0.60;;;0.60;;
66979;SDS011;54048;51.468;-2.572;2022-07-21T01:52:08;1.30;;;0.70;;
66979;SDS011;54048;51.468;-2.572;2022-07-21T01:54:33;1.10;;;0.73;;
66979;SDS011;54048;51.468;-2.572;2022-07-21T01:56:59;1.08;;;0.80;;
66979;SDS011;54048;51.468;-2.572;2022-07-21T01:59:24;1.70;;;0.82;;
66979;SDS011;54048;51.468;-2.572;2022-07-21T02:01:50;1.13;;;0.70;;
66979;SDS011;54048;51.468;-2.572;2022-07-21T02:04:15;1.38;;;0.68;;
66979;SDS011;54048;51.468;-2.572;2022-07-21T02:06:40;2.17;;;0.70;;
66979;SDS011;54048;51.468;-2.572;2022-07-21T02:09:06;5.13;;;1.15;;
66979;SDS011;54048;51.468;-2.572;2022-07-21T02:11:34;1.58;;;0.68;;
66979;SDS011;54048;51.468;-2.572;2022-07-21T02:14:00;1.50;;;0.63;;
66979;SDS011;54048;51.468;-2.572;2022-07-21T02:16:26;3.03;;;0.70;;
66979;SDS011;54048;51.468;-2.572;2022-07-21T02:18:51;4.50;;;0.80;;
66979;SDS011;54048;51.468;-2.572;2022-07-21T02:21:17;3.58;;;0.98;;
66979;SDS011;54048;51.468;-2.572;2022-07-21T02:23:42;2.25;;;0.75;;
66979;SDS011;54048;51.468;-2.572;2022-07-21T02:26:08;0.88;;;0.60;;
66979;SDS011;54048;51.468;-2.572;2022-07-21T02:28:33;0.93;;;0.70;;
66979;SDS011;54048;51.468;-2.572;2022-07-21T02:30:59;3.90;;;0.90;;
66979;SDS011;54048;51.468;-2.572;2022-07-21T02:33:24;0.60;;;0.60;;
66979;SDS011;54048;51.468;-2.572;2022-07-21T02:35:49;1.42;;;0.80;;
66979;SDS011;54048;51.468;-2.572;2022-07-21T02:38:15;2.35;;;0.70;;
66979;SDS011;54048;51.468;-2.572;2022-07-21T02:40:41;1.25;;;0.63;;
66979;SDS011;54048;51.468;-2.572;2022-07-21T02:43:06;1.00;;;0.63;;
66979;SDS011;54048;51.468;-2.572;2022-07-21T02:45:32;1.05;;;0.50;;
66979;SDS011;54048;51.468;-2.572;2022-07-21T02:48:08;0.60;;;0.60;;
66979;SDS011;54048;51.468;-2.572;2022-07-21T02:50:36;1.10;;;0.80;;
66979;SDS011;54048;51.468;-2.572;2022-07-21T02:53:04;2.03;;;0.88;;
66979;SDS011;54048;51.468;-2.572;2022-07-21T02:55:36;0.68;;;0.60;;
66979;SDS011;54048;51.468;-2.572;2022-07-21T02:58:05;1.20;;;0.70;;
66979;SDS011;54048;51.468;-2.572;2022-07-21T03:00:31;1.27;;;0.80;;
66979;SDS011;54048;51.468;-2.572;2022-07-21T03:02:57;1.55;;;0.80;;
66979;SDS011;54048;51.468;-2.572;2022-07-21T03:05:22;1.00;;;0.77;;
66979;SDS011;54048;51.468;-2.572;2022-07-21T03:07:48;3.78;;;0.80;;
66979;SDS011;54048;51.468;-2.572;2022-07-21T03:10:13;1.38;;;0.70;;
66979;SDS011;54048;51.468;-2.572;2022-07-21T03:12:39;1.15;;;0.50;;
66979;SDS011;54048;51.468;-2.572;2022-07-21T03:15:04;2.28;;;0.80;;
66979;SDS011;54048;51.468;-2.572;2022-07-21T03:17:30;1.58;;;0.70;;
66979;SDS011;54048;51.468;-2.572;2022-07-21T03:19:55;2.45;;;0.60;;
66979;SDS011;54048;51.468;-2.572;2022-07-21T03:22:21;2.00;;;0.70;;
66979;SDS011;54048;51.468;-2.572;2022-07-21T03:24:46;2.65;;;0.70;;
66979;SDS011;54048;51.468;-2.572;2022-07-21T03:27:11;2.50;;;1.23;;
66979;SDS011;54048;51.468;-2.572;2022-07-21T03:29:37;6.57;;;0.80;;
66979;SDS011;54048;51.468;-2.572;2022-07-21T03:32:02;1.55;;;0.70;;
66979;SDS011;54048;51.468;-2.572;2022-07-21T03:34:28;1.02;;;0.80;;
66979;SDS011;54048;51.468;-2.572;2022-07-21T03:36:53;4.60;;;0.70;;
66979;SDS011;54048;51.468;-2.572;2022-07-21T03:39:18;1.77;;;0.77;;
66979;SDS011;54048;51.468;-2.572;2022-07-21T03:41:44;0.93;;;0.60;;
66979;SDS011;54048;51.468;-2.572;2022-07-21T03:44:09;1.65;;;0.73;;
66979;SDS011;54048;51.468;-2.572;2022-07-21T03:46:35;2.42;;;0.88;;
66979;SDS011;54048;51.468;-2.572;2022-07-21T03:49:00;4.72;;;0.80;;
66979;SDS011;54048;51.468;-2.572;2022-07-21T03:51:25;0.95;;;0.60;;
66979;SDS011;54048;51.468;-2.572;2022-07-21T03:53:51;1.85;;;0.60;;
66979;SDS011;54048;51.468;-2.572;2022-07-21T03:56:16;1.02;;;0.70;;
66979;SDS011;54048;51.468;-2.572;2022-07-21T03:58:41;2.42;;;0.60;;
66979;SDS011;54048;51.468;-2.572;2022-07-21T04:01:07;2.88;;;1.05;;
66979;SDS011;54048;51.468;-2.572;2022-07-21T04:03:32;2.47;;;0.68;;
66979;SDS011;54048;51.468;-2.572;2022-07-21T04:06:00;3.60;;;0.80;;
66979;SDS011;54048;51.468;-2.572;2022-07-21T04:08:25;4.25;;;0.82;;
66979;SDS011;54048;51.468;-2.572;2022-07-21T04:10:51;3.28;;;0.90;;
66979;SDS011;54048;51.468;-2.572;2022-07-21T04:13:16;2.05;;;0.90;;
66979;SDS011;54048;51.468;-2.572;2022-07-21T04:15:42;1.27;;;0.60;;
66979;SDS011;54048;51.468;-2.572;2022-07-21T04:18:09;2.42;;;0.77;;
66979;SDS011;54048;51.468;-2.572;2022-07-21T04:20:34;1.95;;;1.00;;
66979;SDS011;54048;51.468;-2.572;2022-07-21T04:23:00;4.55;;;0.80;;
66979;SDS011;54048;51.468;-2.572;2022-07-21T04:25:26;2.20;;;0.80;;
66979;SDS011;54048;51.468;-2.572;2022-07-21T04:27:51;1.08;;;0.80;;
66979;SDS011;54048;51.468;-2.572;2022-07-21T04:30:18;1.45;;;0.80;;
66979;SDS011;54048;51.468;-2.572;2022-07-21T04:32:45;1.77;;;0.80;;
66979;SDS011;54048;51.468;-2.572;2022-07-21T04:35:11;1.52;;;0.93;;
66979;SDS011;54048;51.468;-2.572;2022-07-21T04:37:37;1.42;;;0.93;;
66979;SDS011;54048;51.468;-2.572;2022-07-21T04:40:03;1.25;;;0.80;;
66979;SDS011;54048;51.468;-2.572;2022-07-21T04:42:30;4.25;;;0.90;;
66979;SDS011;54048;51.468;-2.572;2022-07-21T04:44:55;3.47;;;1.02;;
66979;SDS011;54048;51.468;-2.572;2022-07-21T04:47:21;3.95;;;0.85;;
66979;SDS011;54048;51.468;-2.572;2022-07-21T04:49:46;3.33;;;0.90;;
66979;SDS011;54048;51.468;-2.572;2022-07-21T04:52:12;2.53;;;0.93;;
66979;SDS011;54048;51.468;-2.572;2022-07-21T04:54:37;3.75;;;1.17;;
66979;SDS011;54048;51.468;-2.572;2022-07-21T04:57:02;3.13;;;1.02;;
66979;SDS011;54048;51.468;-2.572;2022-07-21T04:59:30;2.67;;;0.90;;
66979;SDS011;54048;51.468;-2.572;2022-07-21T05:01:56;3.17;;;0.95;;
66979;SDS011;54048;51.468;-2.572;2022-07-21T05:04:22;2.03;;;0.85;;
66979;SDS011;54048;51.468;-2.572;2022-07-21T05:06:48;2.47;;;0.95;;
66979;SDS011;54048;51.468;-2.572;2022-07-21T05:09:13;2.65;;;0.98;;
66979;SDS011;54048;51.468;-2.572;2022-07-21T05:11:39;1.85;;;0.90;;
66979;SDS011;54048;51.468;-2.572;2022-07-21T05:14:04;3.35;;;1.10;;
66979;SDS011;54048;51.468;-2.572;2022-07-21T05:16:30;2.80;;;0.70;;
66979;SDS011;54048;51.468;-2.572;2022-07-21T05:18:55;2.42;;;0.90;;
66979;SDS011;54048;51.468;-2.572;2022-07-21T05:21:20;1.35;;;0.98;;
66979;SDS011;54048;51.468;-2.572;2022-07-21T05:23:46;1.52;;;1.13;;
66979;SDS011;54048;51.468;-2.572;2022-07-21T05:26:11;3.75;;;1.10;;
66979;SDS011;54048;51.468;-2.572;2022-07-21T05:28:37;2.40;;;0.90;;
66979;SDS011;54048;51.468;-2.572;2022-07-21T05:31:03;4.75;;;1.08;;
66979;SDS011;54048;51.468;-2.572;2022-07-21T05:33:28;2.30;;;0.90;;
66979;SDS011;54048;51.468;-2.572;2022-07-21T05:35:54;1.58;;;0.88;;
66979;SDS011;54048;51.468;-2.572;2022-07-21T05:38:19;1.13;;;0.77;;
66979;SDS011;54048;51.468;-2.572;2022-07-21T05:40:45;7.43;;;1.60;;
66979;SDS011;54048;51.468;-2.572;2022-07-21T05:43:10;2.20;;;0.93;;
66979;SDS011;54048;51.468;-2.572;2022-07-21T05:45:36;2.88;;;1.20;;
66979;SDS011;54048;51.468;-2.572;2022-07-21T05:48:01;6.15;;;0.98;;
66979;SDS011;54048;51.468;-2.572;2022-07-21T05:50:26;1.23;;;0.70;;
66979;SDS011;54048;51.468;-2.572;2022-07-21T05:52:52;1.88;;;0.80;;
66979;SDS011;54048;51.468;-2.572;2022-07-21T05:55:17;2.50;;;0.90;;
66979;SDS011;54048;51.468;-2.572;2022-07-21T05:57:43;1.85;;;0.70;;
66979;SDS011;54048;51.468;-2.572;2022-07-21T06:00:08;1.85;;;0.70;;
66979;SDS011;54048;51.468;-2.572;2022-07-21T06:02:34;1.88;;;0.70;;
66979;SDS011;54048;51.468;-2.572;2022-07-21T06:05:00;1.38;;;0.73;;
66979;SDS011;54048;51.468;-2.572;2022-07-21T06:07:25;1.48;;;0.90;;
66979;SDS011;54048;51.468;-2.572;2022-07-21T06:09:51;7.78;;;1.02;;
66979;SDS011;54048;51.468;-2.572;2022-07-21T06:12:16;4.78;;;1.08;;
66979;SDS011;54048;51.468;-2.572;2022-07-21T06:14:43;3.75;;;0.93;;
66979;SDS011;54048;51.468;-2.572;2022-07-21T06:17:08;1.98;;;0.80;;
66979;SDS011;54048;51.468;-2.572;2022-07-21T06:19:34;2.22;;;0.70;;
66979;SDS011;54048;51.468;-2.572;2022-07-21T06:21:59;1.50;;;0.73;;
66979;SDS011;54048;51.468;-2.572;2022-07-21T06:24:25;4.38;;;0.80;;
66979;SDS011;54048;51.468;-2.572;2022-07-21T06:26:52;3.00;;;0.80;;
66979;SDS011;54048;51.468;-2.572;2022-07-21T06:29:20;5.18;;;1.00;;
66979;SDS011;54048;51.468;-2.572;2022-07-21T06:31:46;1.95;;;0.77;;
66979;SDS011;54048;51.468;-2.572;2022-07-21T06:34:11;4.30;;;0.70;;
66979;SDS011;54048;51.468;-2.572;2022-07-21T06:36:37;2.00;;;0.85;;
66979;SDS011;54048;51.468;-2.572;2022-07-21T06:39:02;2.25;;;0.70;;
66979;SDS011;54048;51.468;-2.572;2022-07-21T06:41:28;2.40;;;0.70;;
66979;SDS011;54048;51.468;-2.572;2022-07-21T06:43:53;1.95;;;0.80;;
66979;SDS011;54048;51.468;-2.572;2022-07-21T06:46:18;1.90;;;0.80;;
66979;SDS011;54048;51.468;-2.572;2022-07-21T06:48:44;4.00;;;0.90;;
66979;SDS011;54048;51.468;-2.572;2022-07-21T06:51:09;3.92;;;0.80;;
66979;SDS011;54048;51.468;-2.572;2022-07-21T06:53:35;3.50;;;1.00;;
66979;SDS011;54048;51.468;-2.572;2022-07-21T06:56:00;1.77;;;0.80;;
66979;SDS011;54048;51.468;-2.572;2022-07-21T06:58:26;7.88;;;0.80;;
66979;SDS011;54048;51.468;-2.572;2022-07-21T07:00:52;5.07;;;0.90;;
66979;SDS011;54048;51.468;-2.572;2022-07-21T07:03:18;3.58;;;0.80;;
66979;SDS011;54048;51.468;-2.572;2022-07-21T07:05:44;4.22;;;0.90;;
66979;SDS011;54048;51.468;-2.572;2022-07-21T07:08:11;2.40;;;0.70;;
66979;SDS011;54048;51.468;-2.572;2022-07-21T07:10:37;3.45;;;0.85;;
66979;SDS011;54048;51.468;-2.572;2022-07-21T07:13:02;7.18;;;1.10;;
66979;SDS011;54048;51.468;-2.572;2022-07-21T07:15:29;4.90;;;1.00;;
66979;SDS011;54048;51.468;-2.572;2022-07-21T07:17:54;5.45;;;1.00;;
66979;SDS011;54048;51.468;-2.572;2022-07-21T07:20:20;2.45;;;1.05;;
66979;SDS011;54048;51.468;-2.572;2022-07-21T07:22:46;2.80;;;1.30;;
66979;SDS011;54048;51.468;-2.572;2022-07-21T07:25:12;1.42;;;0.95;;
66979;SDS011;54048;51.468;-2.572;2022-07-21T07:27:41;2.38;;;0.82;;
66979;SDS011;54048;51.468;-2.572;2022-07-21T07:30:08;1.65;;;0.80;;
66979;SDS011;54048;51.468;-2.572;2022-07-21T07:32:34;1.75;;;0.90;;
66979;SDS011;54048;51.468;-2.572;2022-07-21T07:34:59;2.65;;;0.70;;
66979;SDS011;54048;51.468;-2.572;2022-07-21T07:37:25;2.50;;;1.00;;
66979;SDS011;54048;51.468;-2.572;2022-07-21T07:39:50;5.93;;;0.80;;
66979;SDS011;54048;51.468;-2.572;2022-07-21T07:42:16;4.03;;;1.10;;
66979;SDS011;54048;51.468;-2.572;2022-07-21T07:44:41;1.85;;;0.98;;
66979;SDS011;54048;51.468;-2.572;2022-07-21T07:47:06;6.70;;;1.20;;
66979;SDS011;54048;51.468;-2.572;2022-07-21T07:49:32;9.02;;;1.30;;
66979;SDS011;54048;51.468;-2.572;2022-07-21T07:51:57;6.05;;;1.00;;
66979;SDS011;54048;51.468;-2.572;2022-07-21T07:54:23;3.67;;;1.10;;
66979;SDS011;54048;51.468;-2.572;2022-07-21T07:56:49;1.42;;;0.80;;
66979;SDS011;54048;51.468;-2.572;2022-07-21T07:59:14;3.30;;;1.00;;
66979;SDS011;54048;51.468;-2.572;2022-07-21T08:01:40;5.57;;;1.17;;
66979;SDS011;54048;51.468;-2.572;2022-07-21T08:04:05;3.35;;;0.77;;
66979;SDS011;54048;51.468;-2.572;2022-07-21T08:06:31;2.10;;;0.82;;
66979;SDS011;54048;51.468;-2.572;2022-07-21T08:08:56;2.00;;;1.00;;
66979;SDS011;54048;51.468;-2.572;2022-07-21T08:11:22;2.95;;;1.10;;
66979;SDS011;54048;51.468;-2.572;2022-07-21T08:13:47;4.78;;;0.93;;
66979;SDS011;54048;51.468;-2.572;2022-07-21T08:16:12;4.47;;;1.05;;
66979;SDS011;54048;51.468;-2.572;2022-07-21T08:18:40;4.07;;;0.98;;
66979;SDS011;54048;51.468;-2.572;2022-07-21T08:21:06;5.57;;;1.23;;
66979;SDS011;54048;51.468;-2.572;2022-07-21T08:23:32;7.13;;;1.00;;
66979;SDS011;54048;51.468;-2.572;2022-07-21T08:25:57;2.45;;;1.02;;
66979;SDS011;54048;51.468;-2.572;2022-07-21T08:28:23;5.00;;;0.90;;
66979;SDS011;54048;51.468;-2.572;2022-07-21T08:30:48;2.15;;;0.98;;
66979;SDS011;54048;51.468;-2.572;2022-07-21T08:33:14;3.80;;;1.15;;
66979;SDS011;54048;51.468;-2.572;2022-07-21T08:35:39;3.95;;;1.08;;
66979;SDS011;54048;51.468;-2.572;2022-07-21T08:38:06;6.88;;;1.30;;
66979;SDS011;54048;51.468;-2.572;2022-07-21T08:40:33;5.65;;;1.52;;
66979;SDS011;54048;51.468;-2.572;2022-07-21T08:43:00;4.78;;;1.10;;
66979;SDS011;54048;51.468;-2.572;2022-07-21T08:45:26;2.05;;;1.10;;
66979;SDS011;54048;51.468;-2.572;2022-07-21T08:47:53;4.38;;;1.40;;
66979;SDS011;54048;51.468;-2.572;2022-07-21T08:50:22;2.80;;;1.30;;
66979;SDS011;54048;51.468;-2.572;2022-07-21T08:52:48;3.22;;;1.20;;
66979;SDS011;54048;51.468;-2.572;2022-07-21T08:55:14;7.15;;;1.20;;
66979;SDS011;54048;51.468;-2.572;2022-07-21T08:57:39;3.70;;;1.25;;
66979;SDS011;54048;51.468;-2.572;2022-07-21T09:00:06;4.40;;;1.10;;
66979;SDS011;54048;51.468;-2.572;2022-07-21T09:02:34;6.10;;;1.30;;
66979;SDS011;54048;51.468;-2.572;2022-07-21T09:05:00;3.25;;;1.35;;
66979;SDS011;54048;51.468;-2.572;2022-07-21T09:07:26;8.27;;;1.45;;
66979;SDS011;54048;51.468;-2.572;2022-07-21T09:10:01;5.75;;;1.30;;
66979;SDS011;54048;51.468;-2.572;2022-07-21T09:12:28;6.72;;;1.73;;
66979;SDS011;54048;51.468;-2.572;2022-07-21T09:15:12;6.25;;;1.67;;
66979;SDS011;54048;51.468;-2.572;2022-07-21T09:17:39;2.90;;;1.23;;
66979;SDS011;54048;51.468;-2.572;2022-07-21T09:20:04;3.72;;;1.42;;
66979;SDS011;54048;51.468;-2.572;2022-07-21T09:23:07;5.47;;;1.53;;
66979;SDS011;54048;51.468;-2.572;2022-07-21T09:25:37;5.43;;;1.48;;
66979;SDS011;54048;51.468;-2.572;2022-07-21T09:30:46;3.42;;;1.20;;
66979;SDS011;54048;51.468;-2.572;2022-07-21T09:38:36;5.43;;;2.03;;
66979;SDS011;54048;51.468;-2.572;2022-07-21T09:41:04;5.57;;;2.00;;
66979;SDS011;54048;51.468;-2.572;2022-07-21T09:43:36;4.07;;;1.40;;
66979;SDS011;54048;51.468;-2.572;2022-07-21T09:48:43;3.30;;;1.50;;
66979;SDS011;54048;51.468;-2.572;2022-07-21T09:56:25;3.40;;;1.40;;
66979;SDS011;54048;51.468;-2.572;2022-07-21T09:58:53;3.53;;;1.90;;
66979;SDS011;54048;51.468;-2.572;2022-07-21T10:01:20;3.85;;;1.42;;
66979;SDS011;54048;51.468;-2.572;2022-07-21T10:03:46;4.55;;;1.40;;
66979;SDS011;54048;51.468;-2.572;2022-07-21T10:06:12;4.45;;;1.67;;
66979;SDS011;54048;51.468;-2.572;2022-07-21T10:08:40;10.05;;;1.83;;
66979;SDS011;54048;51.468;-2.572;2022-07-21T10:11:06;4.80;;;1.70;;
66979;SDS011;54048;51.468;-2.572;2022-07-21T10:13:33;3.65;;;1.85;;
66979;SDS011;54048;51.468;-2.572;2022-07-21T10:15:58;3.10;;;1.63;;
66979;SDS011;54048;51.468;-2.572;2022-07-21T10:18:28;4.05;;;2.45;;
66979;SDS011;54048;51.468;-2.572;2022-07-21T10:21:03;4.28;;;1.90;;
66979;SDS011;54048;51.468;-2.572;2022-07-21T10:25:59;3.97;;;1.58;;
66979;SDS011;54048;51.468;-2.572;2022-07-21T10:28:24;5.05;;;1.50;;
66979;SDS011;54048;51.468;-2.572;2022-07-21T10:30:54;5.85;;;1.60;;
66979;SDS011;54048;51.468;-2.572;2022-07-21T10:33:21;2.97;;;1.60;;
66979;SDS011;54048;51.468;-2.572;2022-07-21T10:36:07;3.38;;;1.60;;
66979;SDS011;54048;51.468;-2.572;2022-07-21T10:38:34;5.82;;;1.75;;
66979;SDS011;54048;51.468;-2.572;2022-07-21T10:41:01;4.95;;;2.00;;
66979;SDS011;54048;51.468;-2.572;2022-07-21T10:45:57;7.43;;;2.15;;
66979;SDS011;54048;51.468;-2.572;2022-07-21T10:51:09;5.55;;;1.90;;
66979;SDS011;54048;51.468;-2.572;2022-07-21T10:53:38;4.72;;;2.00;;
66979;SDS011;54048;51.468;-2.572;2022-07-21T10:56:05;6.47;;;2.25;;
66979;SDS011;54048;51.468;-2.572;2022-07-21T10:58:41;4.18;;;1.83;;
66979;SDS011;54048;51.468;-2.572;2022-07-21T11:01:19;5.32;;;1.90;;
66979;SDS011;54048;51.468;-2.572;2022-07-21T11:04:05;3.30;;;1.73;;
66979;SDS011;54048;51.468;-2.572;2022-07-21T11:06:32;4.28;;;1.92;;
66979;SDS011;54048;51.468;-2.572;2022-07-21T11:11:37;4.10;;;1.92;;
66979;SDS011;54048;51.468;-2.572;2022-07-21T11:14:14;4.63;;;1.85;;
66979;SDS011;54048;51.468;-2.572;2022-07-21T11:22:03;2.58;;;1.83;;
66979;SDS011;54048;51.468;-2.572;2022-07-21T11:24:30;6.22;;;2.45;;
66979;SDS011;54048;51.468;-2.572;2022-07-21T11:26:56;11.32;;;2.28;;
66979;SDS011;54048;51.468;-2.572;2022-07-21T11:29:23;8.27;;;2.13;;
66979;SDS011;54048;51.468;-2.572;2022-07-21T11:31:48;7.18;;;1.85;;
66979;SDS011;54048;51.468;-2.572;2022-07-21T11:34:14;6.63;;;2.08;;
66979;SDS011;54048;51.468;-2.572;2022-07-21T11:36:40;4.05;;;1.83;;
66979;SDS011;54048;51.468;-2.572;2022-07-21T11:39:10;5.03;;;2.20;;
66979;SDS011;54048;51.468;-2.572;2022-07-21T11:41:38;7.75;;;1.90;;
66979;SDS011;54048;51.468;-2.572;2022-07-21T11:44:06;4.78;;;2.10;;
66979;SDS011;54048;51.468;-2.572;2022-07-21T11:46:45;4.93;;;1.80;;
66979;SDS011;54048;51.468;-2.572;2022-07-21T11:49:16;4.10;;;1.98;;
66979;SDS011;54048;51.468;-2.572;2022-07-21T11:57:00;8.23;;;1.95;;
66979;SDS011;54048;51.468;-2.572;2022-07-21T11:59:29;4.78;;;1.90;;
66979;SDS011;54048;51.468;-2.572;2022-07-21T12:02:00;6.97;;;2.33;;
66979;SDS011;54048;51.468;-2.572;2022-07-21T12:04:39;5.30;;;2.10;;
66979;SDS011;54048;51.468;-2.572;2022-07-21T12:07:06;4.55;;;1.85;;
66979;SDS011;54048;51.468;-2.572;2022-07-21T12:09:35;7.72;;;2.20;;
66979;SDS011;54048;51.468;-2.572;2022-07-21T12:12:01;6.50;;;2.13;;
66979;SDS011;54048;51.468;-2.572;2022-07-21T12:14:40;4.05;;;2.03;;
66979;SDS011;54048;51.468;-2.572;2022-07-21T12:17:14;5.20;;;1.98;;
66979;SDS011;54048;51.468;-2.572;2022-07-21T12:19:43;22.27;;;2.85;;
66979;SDS011;54048;51.468;-2.572;2022-07-21T12:22:09;8.85;;;2.38;;
66979;SDS011;54048;51.468;-2.572;2022-07-21T12:24:51;12.25;;;2.45;;
66979;SDS011;54048;51.468;-2.572;2022-07-21T12:27:21;7.85;;;2.40;;
66979;SDS011;54048;51.468;-2.572;2022-07-21T12:29:47;5.45;;;2.15;;
66979;SDS011;54048;51.468;-2.572;2022-07-21T12:32:13;4.93;;;1.90;;
66979;SDS011;54048;51.468;-2.572;2022-07-21T12:34:52;4.85;;;2.13;;
66979;SDS011;54048;51.468;-2.572;2022-07-21T12:37:19;6.57;;;2.15;;
66979;SDS011;54048;51.468;-2.572;2022-07-21T12:40:00;3.47;;;2.08;;
66979;SDS011;54048;51.468;-2.572;2022-07-21T12:42:32;9.90;;;2.40;;
66979;SDS011;54048;51.468;-2.572;2022-07-21T12:45:00;4.15;;;2.10;;
66979;SDS011;54048;51.468;-2.572;2022-07-21T12:47:35;7.35;;;2.20;;
66979;SDS011;54048;51.468;-2.572;2022-07-21T12:50:01;5.68;;;2.35;;
66979;SDS011;54048;51.468;-2.572;2022-07-21T12:52:29;4.82;;;2.38;;
66979;SDS011;54048;51.468;-2.572;2022-07-21T12:54:55;6.88;;;2.33;;
66979;SDS011;54048;51.468;-2.572;2022-07-21T12:57:25;10.57;;;2.55;;
66979;SDS011;54048;51.468;-2.572;2022-07-21T12:59:52;6.88;;;2.65;;
66979;SDS011;54048;51.468;-2.572;2022-07-21T13:02:18;6.25;;;2.83;;
66979;SDS011;54048;51.468;-2.572;2022-07-21T13:04:43;4.25;;;2.40;;
66979;SDS011;54048;51.468;-2.572;2022-07-21T13:07:09;4.88;;;2.70;;
66979;SDS011;54048;51.468;-2.572;2022-07-21T13:09:34;5.72;;;2.75;;
66979;SDS011;54048;51.468;-2.572;2022-07-21T13:12:00;5.38;;;2.60;;
66979;SDS011;54048;51.468;-2.572;2022-07-21T13:14:25;4.35;;;2.70;;
66979;SDS011;54048;51.468;-2.572;2022-07-21T13:16:52;7.57;;;2.80;;
66979;SDS011;54048;51.468;-2.572;2022-07-21T13:19:18;4.93;;;2.42;;
66979;SDS011;54048;51.468;-2.572;2022-07-21T13:21:43;4.43;;;2.60;;
66979;SDS011;54048;51.468;-2.572;2022-07-21T13:24:09;4.63;;;2.58;;
66979;SDS011;54048;51.468;-2.572;2022-07-21T13:26:34;6.68;;;2.92;;
66979;SDS011;54048;51.468;-2.572;2022-07-21T13:29:00;5.15;;;2.58;;
66979;SDS011;54048;51.468;-2.572;2022-07-21T13:31:27;5.38;;;2.78;;
66979;SDS011;54048;51.468;-2.572;2022-07-21T13:33:52;4.15;;;2.40;;
66979;SDS011;54048;51.468;-2.572;2022-07-21T13:36:18;5.57;;;2.25;;
66979;SDS011;54048;51.468;-2.572;2022-07-21T13:38:44;5.50;;;2.72;;
66979;SDS011;54048;51.468;-2.572;2022-07-21T13:41:09;8.63;;;3.53;;
66979;SDS011;54048;51.468;-2.572;2022-07-21T13:43:35;7.60;;;3.55;;
66979;SDS011;54048;51.468;-2.572;2022-07-21T13:46:01;5.45;;;2.92;;
66979;SDS011;54048;51.468;-2.572;2022-07-21T13:48:26;6.88;;;3.53;;
66979;SDS011;54048;51.468;-2.572;2022-07-21T13:50:52;6.93;;;2.47;;
66979;SDS011;54048;51.468;-2.572;2022-07-21T13:53:17;9.23;;;2.58;;
66979;SDS011;54048;51.468;-2.572;2022-07-21T13:55:43;7.35;;;2.63;;
66979;SDS011;54048;51.468;-2.572;2022-07-21T13:58:08;8.23;;;2.95;;
66979;SDS011;54048;51.468;-2.572;2022-07-21T14:00:34;6.25;;;2.45;;
66979;SDS011;54048;51.468;-2.572;2022-07-21T14:03:00;5.65;;;2.65;;
66979;SDS011;54048;51.468;-2.572;2022-07-21T14:05:25;9.75;;;3.13;;
66979;SDS011;54048;51.468;-2.572;2022-07-21T14:07:51;9.32;;;2.70;;
66979;SDS011;54048;51.468;-2.572;2022-07-21T14:10:16;10.45;;;3.13;;
66979;SDS011;54048;51.468;-2.572;2022-07-21T14:12:42;5.93;;;2.50;;
66979;SDS011;54048;51.468;-2.572;2022-07-21T14:15:07;6.80;;;2.65;;
66979;SDS011;54048;51.468;-2.572;2022-07-21T14:17:33;5.75;;;2.67;;
66979;SDS011;54048;51.468;-2.572;2022-07-21T14:19:59;8.63;;;2.97;;
66979;SDS011;54048;51.468;-2.572;2022-07-21T14:22:24;4.55;;;2.53;;
66979;SDS011;54048;51.468;-2.572;2022-07-21T14:24:50;5.32;;;2.45;;
66979;SDS011;54048;51.468;-2.572;2022-07-21T14:27:34;8.13;;;2.67;;
66979;SDS011;54048;51.468;-2.572;2022-07-21T14:29:59;5.05;;;2.50;;
66979;SDS011;54048;51.468;-2.572;2022-07-21T14:32:26;7.05;;;2.83;;
66979;SDS011;54048;51.468;-2.572;2022-07-21T14:34:51;7.10;;;2.67;;
66979;SDS011;54048;51.468;-2.572;2022-07-21T14:37:17;4.95;;;2.45;;
66979;SDS011;54048;51.468;-2.572;2022-07-21T14:39:44;8.90;;;2.92;;
66979;SDS011;54048;51.468;-2.572;2022-07-21T14:42:10;7.07;;;3.10;;
66979;SDS011;54048;51.468;-2.572;2022-07-21T14:44:36;7.05;;;3.15;;
66979;SDS011;54048;51.468;-2.572;2022-07-21T14:47:01;5.35;;;2.53;;
66979;SDS011;54048;51.468;-2.572;2022-07-21T14:49:27;3.95;;;2.53;;
66979;SDS011;54048;51.468;-2.572;2022-07-21T14:51:52;8.70;;;2.72;;
66979;SDS011;54048;51.468;-2.572;2022-07-21T14:54:18;4.95;;;2.63;;
66979;SDS011;54048;51.468;-2.572;2022-07-21T14:56:43;7.65;;;2.53;;
66979;SDS011;54048;51.468;-2.572;2022-07-21T14:59:13;5.70;;;2.60;;
66979;SDS011;54048;51.468;-2.572;2022-07-21T15:01:39;9.32;;;2.33;;
66979;SDS011;54048;51.468;-2.572;2022-07-21T15:04:04;7.57;;;2.70;;
66979;SDS011;54048;51.468;-2.572;2022-07-21T15:06:30;7.85;;;2.85;;
66979;SDS011;54048;51.468;-2.572;2022-07-21T15:08:55;7.10;;;2.58;;